createdAt,value
2023-09-12T00:02:13.957Z,87.00
2023-09-12T00:05:15.730Z,87.00
2023-09-12T00:08:17.373Z,87.40
2023-09-12T00:11:19.560Z,87.00
2023-09-12T00:14:21.335Z,87.20
2023-09-12T00:17:22.992Z,87.50
2023-09-12T00:20:24.869Z,88.20
2023-09-12T00:23:26.499Z,88.30
2023-09-12T00:26:28.440Z,88.70
2023-09-12T00:29:30.593Z,88.70
2023-09-12T00:32:32.185Z,88.70
2023-09-12T00:35:33.852Z,88.80
2023-09-12T00:38:35.511Z,89.50
2023-09-12T00:41:37.138Z,90.00
2023-09-12T00:44:38.780Z,90.00
2023-09-12T00:47:41.132Z,90.30
2023-09-12T00:50:44.282Z,90.20
2023-09-12T00:53:45.982Z,90.30
2023-09-12T00:56:47.843Z,90.40
2023-09-12T00:59:53.691Z,90.30
2023-09-12T01:02:57.104Z,90.20
2023-09-12T01:06:00.469Z,90.20
2023-09-12T01:09:02.726Z,89.60
2023-09-12T01:12:04.886Z,89.60
2023-09-12T01:15:14.266Z,89.10
2023-09-12T01:18:16.285Z,88.70
2023-09-12T01:21:44.698Z,88.60
2023-09-12T01:25:04.980Z,88.90
2023-09-12T01:28:10.356Z,89.10
2023-09-12T01:31:13.522Z,89.90
2023-09-12T01:34:15.363Z,90.20
2023-09-12T01:37:17.162Z,90.70
2023-09-12T01:40:20.103Z,90.80
2023-09-12T01:43:24.643Z,90.30
2023-09-12T01:46:27.917Z,89.80
2023-09-12T01:49:30.606Z,89.40
2023-09-12T01:52:33.237Z,89.10
2023-09-12T01:55:36.723Z,88.60
2023-09-12T01:58:38.933Z,88.20
2023-09-12T02:01:40.621Z,88.00
2023-09-12T02:04:42.520Z,87.50
2023-09-12T02:07:44.159Z,87.00
2023-09-12T02:10:45.825Z,86.80
2023-09-12T02:13:47.509Z,87.00
2023-09-12T02:16:49.368Z,87.00
2023-09-12T02:19:51.129Z,87.00
2023-09-12T02:22:52.868Z,87.30
2023-09-12T02:25:54.556Z,87.60
2023-09-12T02:28:56.216Z,87.30
2023-09-12T02:31:57.962Z,87.80
2023-09-12T02:34:59.952Z,88.60
2023-09-12T02:38:01.690Z,89.70
2023-09-12T02:41:03.756Z,91.20
2023-09-12T02:44:05.694Z,91.90
2023-09-12T02:47:07.377Z,92.70
2023-09-12T02:50:10.067Z,92.90
2023-09-12T02:53:11.791Z,93.00
2023-09-12T02:56:13.596Z,92.90
2023-09-12T02:59:15.302Z,93.20
2023-09-12T03:02:17.081Z,93.40
2023-09-12T03:05:18.810Z,93.30
2023-09-12T03:08:20.452Z,93.30
2023-09-12T03:11:22.085Z,93.00
2023-09-12T03:14:23.763Z,92.80
2023-09-12T03:17:25.403Z,92.60
2023-09-12T03:20:27.069Z,92.60
2023-09-12T03:23:28.708Z,92.60
2023-09-12T03:26:30.347Z,92.10
2023-09-12T03:29:31.978Z,92.20
2023-09-12T03:32:33.613Z,92.30
2023-09-12T03:35:36.109Z,92.30
2023-09-12T03:38:38.224Z,92.00
2023-09-12T03:41:40.716Z,92.10
2023-09-12T03:44:42.327Z,91.70
2023-09-12T03:47:47.711Z,91.40
2023-09-12T03:50:49.477Z,91.00
2023-09-12T03:53:51.229Z,90.80
2023-09-12T03:56:52.898Z,90.40
2023-09-12T03:59:54.687Z,90.10
2023-09-12T04:02:56.394Z,90.60
2023-09-12T04:05:58.072Z,90.60
2023-09-12T04:08:59.770Z,90.60
2023-09-12T04:12:02.546Z,90.60
2023-09-12T04:15:04.759Z,90.50
2023-09-12T04:18:06.761Z,90.70
2023-09-12T04:21:08.588Z,90.50
2023-09-12T04:24:10.366Z,90.50
2023-09-12T04:27:12.324Z,90.30
2023-09-12T04:30:14.163Z,90.30
2023-09-12T04:33:15.920Z,90.50
2023-09-12T04:36:18.664Z,90.50
2023-09-12T04:39:20.804Z,90.50
2023-09-12T04:42:22.696Z,90.30
2023-09-12T04:45:24.542Z,90.20
2023-09-12T04:48:26.297Z,90.10
2023-09-12T04:51:28.492Z,89.90
2023-09-12T04:54:30.333Z,89.90
2023-09-12T04:57:32.499Z,90.10
2023-09-12T05:00:34.777Z,90.30
2023-09-12T05:03:36.894Z,90.20
2023-09-12T05:06:38.695Z,90.40
2023-09-12T05:09:40.388Z,90.40
2023-09-12T05:12:42.251Z,90.40
2023-09-12T05:15:44.542Z,90.20
2023-09-12T05:18:46.787Z,90.30
2023-09-12T05:21:48.568Z,90.50
2023-09-12T05:24:50.746Z,90.30
2023-09-12T05:27:52.412Z,90.30
2023-09-12T05:30:54.489Z,90.30
2023-09-12T05:33:56.438Z,90.00
2023-09-12T05:36:58.551Z,89.40
2023-09-12T05:40:00.313Z,89.10
2023-09-12T05:43:02.143Z,88.30
2023-09-12T05:46:03.815Z,89.00
2023-09-12T05:49:05.562Z,88.30
2023-09-12T05:52:07.302Z,88.10
2023-09-12T05:55:09.686Z,87.80
2023-09-12T05:58:11.293Z,87.70
2023-09-12T06:01:13.257Z,87.60
2023-09-12T06:04:15.237Z,87.60
2023-09-12T06:07:16.974Z,87.70
2023-09-12T06:10:18.640Z,88.30
2023-09-12T06:13:20.749Z,88.30
2023-09-12T06:16:22.594Z,88.10
2023-09-12T06:19:24.285Z,87.90
2023-09-12T06:22:25.942Z,87.80
2023-09-12T06:25:27.666Z,88.20
2023-09-12T06:28:31.228Z,88.20
2023-09-12T06:31:33.350Z,88.50
2023-09-12T06:34:35.088Z,89.20
2023-09-12T06:37:36.709Z,89.60
2023-09-12T06:40:38.346Z,89.90
2023-09-12T06:43:40.004Z,89.50
2023-09-12T06:46:41.653Z,89.30
2023-09-12T06:49:43.684Z,89.30
2023-09-12T06:52:45.925Z,89.10
2023-09-12T06:55:47.667Z,88.90
2023-09-12T06:58:49.612Z,88.20
2023-09-12T07:01:51.248Z,87.00
2023-09-12T07:04:53.130Z,87.10
2023-09-12T07:07:54.858Z,86.40
2023-09-12T07:10:57.985Z,86.20
2023-09-12T07:13:59.703Z,86.30
2023-09-12T07:17:01.363Z,85.40
2023-09-12T07:20:03.038Z,84.60
2023-09-12T07:23:04.730Z,83.70
2023-09-12T07:26:06.369Z,82.50
2023-09-12T07:29:08.227Z,81.10
2023-09-12T07:32:09.938Z,80.10
2023-09-12T07:35:11.746Z,79.20
2023-09-12T07:38:13.654Z,78.40
2023-09-12T07:41:15.374Z,78.60
2023-09-12T07:44:17.648Z,77.30
2023-09-12T07:47:20.394Z,78.20
2023-09-12T07:50:22.160Z,78.90
2023-09-12T07:53:23.892Z,77.70
2023-09-12T07:56:25.623Z,77.30
2023-09-12T07:59:27.318Z,76.50
2023-09-12T08:02:29.062Z,75.60
2023-09-12T08:05:30.689Z,75.20
2023-09-12T08:08:32.709Z,75.20
2023-09-12T08:11:34.365Z,75.10
2023-09-12T08:14:35.985Z,74.70
2023-09-12T08:17:39.598Z,74.80
2023-09-12T08:20:41.419Z,74.30
2023-09-12T08:23:43.185Z,75.00
2023-09-12T08:26:45.067Z,74.00
2023-09-12T08:29:49.359Z,73.40
2023-09-12T08:32:52.155Z,73.20
2023-09-12T08:35:54.037Z,72.20
2023-09-12T08:38:55.703Z,71.50
2023-09-12T08:41:57.390Z,71.40
2023-09-12T08:44:59.130Z,70.90
2023-09-12T08:48:02.187Z,71.00
2023-09-12T08:51:08.404Z,71.10
2023-09-12T08:54:10.668Z,71.40
2023-09-12T08:57:14.319Z,70.20
2023-09-12T09:00:16.307Z,69.60
2023-09-12T09:03:19.623Z,69.30
2023-09-12T09:06:23.669Z,68.70
2023-09-12T09:09:25.413Z,67.90
2023-09-12T09:12:28.409Z,67.40
2023-09-12T09:15:31.285Z,67.10
2023-09-12T09:19:04.200Z,67.90
2023-09-12T09:22:07.052Z,67.10
2023-09-12T09:25:15.761Z,67.00
2023-09-12T09:28:24.677Z,67.00
2023-09-12T09:31:26.552Z,65.70
2023-09-12T09:34:30.330Z,65.50
2023-09-12T09:37:32.273Z,65.30
2023-09-12T09:40:34.796Z,65.50
2023-09-12T09:43:36.713Z,65.90
2023-09-12T09:46:38.755Z,65.50
2023-09-12T09:49:40.653Z,65.00
2023-09-12T09:52:44.094Z,64.20
2023-09-12T09:55:45.702Z,63.10
2023-09-12T09:58:52.628Z,62.70
2023-09-12T10:01:59.157Z,62.60
2023-09-12T10:05:05.257Z,61.40
2023-09-12T10:08:10.976Z,61.30
2023-09-12T10:11:16.953Z,60.50
2023-09-12T10:14:20.868Z,60.10
2023-09-12T10:17:30.576Z,60.30
2023-09-12T10:20:40.387Z,60.50
2023-09-12T10:23:46.702Z,58.10
2023-09-12T10:26:51.506Z,58.60
2023-09-12T10:29:54.375Z,58.20
2023-09-12T10:32:57.187Z,58.30
2023-09-12T10:36:00.119Z,58.10
2023-09-12T10:39:05.449Z,57.80
2023-09-12T10:42:08.252Z,57.10
2023-09-12T10:45:10.739Z,57.40
2023-09-12T10:48:12.681Z,56.80
2023-09-12T10:51:16.845Z,57.40
2023-09-12T10:54:36.444Z,57.50
2023-09-12T10:58:01.145Z,56.20
2023-09-12T11:01:25.461Z,56.50
2023-09-12T11:04:31.401Z,55.30
2023-09-12T11:07:34.222Z,55.30
2023-09-12T11:10:36.153Z,55.00
2023-09-12T11:13:43.552Z,55.00
2023-09-12T11:17:08.915Z,54.80
2023-09-12T11:20:12.130Z,54.90
2023-09-12T11:23:14.832Z,54.80
2023-09-12T11:26:16.589Z,55.20
2023-09-12T11:29:18.310Z,55.40
2023-09-12T11:32:28.852Z,54.80
2023-09-12T11:35:30.935Z,56.00
2023-09-12T11:38:32.902Z,55.10
2023-09-12T11:41:41.180Z,54.20
2023-09-12T11:44:45.733Z,54.00
2023-09-12T11:47:48.412Z,53.90
2023-09-12T11:50:52.974Z,53.40
2023-09-12T11:53:56.421Z,53.20
2023-09-12T11:57:00.572Z,52.80
2023-09-12T12:00:09.600Z,53.30
2023-09-12T12:03:11.453Z,53.50
2023-09-12T12:06:13.259Z,53.10
2023-09-12T12:09:17.345Z,53.10
2023-09-12T12:12:19.003Z,52.20
2023-09-12T12:15:27.605Z,52.30
2023-09-12T12:18:29.449Z,52.60
2023-09-12T12:21:32.258Z,52.50
2023-09-12T12:24:46.811Z,52.00
2023-09-12T12:27:48.638Z,51.20
2023-09-12T12:30:53.388Z,52.20
2023-09-12T12:35:28.536Z,51.40
2023-09-12T12:37:18.776Z,52.20
2023-09-12T12:40:20.781Z,51.50
2023-09-12T12:43:23.025Z,51.70
2023-09-12T12:46:24.766Z,52.40
2023-09-12T12:49:26.585Z,51.00
2023-09-12T12:52:28.261Z,51.30
2023-09-12T12:55:30.496Z,50.80
2023-09-12T12:58:32.262Z,50.30
2023-09-12T13:01:38.004Z,49.70
2023-09-12T13:04:39.959Z,49.70
2023-09-12T13:07:41.644Z,49.60
2023-09-12T13:10:46.171Z,49.50
2023-09-12T13:13:50.188Z,50.00
2023-09-12T13:16:51.873Z,49.70
2023-09-12T13:19:53.570Z,49.20
2023-09-12T13:22:55.259Z,49.20
2023-09-12T13:25:57.949Z,48.40
2023-09-12T13:28:59.608Z,49.70
2023-09-12T13:32:01.333Z,48.30
2023-09-12T13:35:03.141Z,47.50
2023-09-12T13:38:10.285Z,47.00
2023-09-12T13:41:11.932Z,47.60
2023-09-12T13:44:15.480Z,48.10
2023-09-12T13:47:23.725Z,47.50
2023-09-12T13:50:26.507Z,47.60
2023-09-12T13:53:28.140Z,46.80
2023-09-12T13:56:29.841Z,46.90
2023-09-12T13:59:41.986Z,47.60
2023-09-12T14:02:47.347Z,48.00
2023-09-12T14:05:49.295Z,47.40
2023-09-12T14:08:53.052Z,47.80
2023-09-12T14:11:55.187Z,46.70
2023-09-12T14:15:06.811Z,47.20
2023-09-12T14:18:11.174Z,47.20
2023-09-12T14:21:13.570Z,47.10
2023-09-12T14:24:15.486Z,46.30
2023-09-12T14:27:24.800Z,46.90
2023-09-12T14:30:35.889Z,47.00
2023-09-12T14:33:37.614Z,47.40
2023-09-12T14:36:39.253Z,46.90
2023-09-12T14:39:40.954Z,47.20
2023-09-12T14:42:42.676Z,47.10
2023-09-12T14:45:44.528Z,47.90
2023-09-12T14:48:57.274Z,46.70
2023-09-12T14:52:03.378Z,47.00
2023-09-12T14:55:08.579Z,47.00
2023-09-12T14:58:10.270Z,47.10
2023-09-12T15:01:12.010Z,46.60
2023-09-12T15:04:13.872Z,46.10
2023-09-12T15:07:15.772Z,46.00
2023-09-12T15:10:18.478Z,44.70
2023-09-12T15:13:20.197Z,44.80
2023-09-12T15:16:21.911Z,45.30
2023-09-12T15:19:23.648Z,45.00
2023-09-12T15:22:25.264Z,44.90
2023-09-12T15:25:27.064Z,45.50
2023-09-12T15:28:28.900Z,45.20
2023-09-12T15:31:30.561Z,44.80
2023-09-12T15:34:32.274Z,45.30
2023-09-12T15:37:34.021Z,44.20
2023-09-12T15:40:35.680Z,45.30
2023-09-12T15:43:37.390Z,45.30
2023-09-12T15:46:39.267Z,45.00
2023-09-12T15:49:40.969Z,44.30
2023-09-12T15:52:43.325Z,44.10
2023-09-12T15:55:44.970Z,44.60
2023-09-12T15:58:49.623Z,45.50
2023-09-12T16:01:51.282Z,45.00
2023-09-12T16:04:53.019Z,45.70
2023-09-12T16:07:54.696Z,45.40
2023-09-12T16:10:56.316Z,45.30
2023-09-12T16:13:57.951Z,45.60
2023-09-12T16:17:02.253Z,44.50
2023-09-12T16:20:04.569Z,44.50
2023-09-12T16:23:06.315Z,44.20
2023-09-12T16:26:07.932Z,44.60
2023-09-12T16:29:09.551Z,45.50
2023-09-12T16:32:11.228Z,46.70
2023-09-12T16:35:12.964Z,47.50
2023-09-12T16:38:15.346Z,47.80
2023-09-12T16:41:17.089Z,47.20
2023-09-12T16:44:21.156Z,46.70
2023-09-12T16:47:23.236Z,46.80
2023-09-12T16:50:27.718Z,46.80
2023-09-12T16:53:29.349Z,46.70
2023-09-12T16:56:30.968Z,47.80
2023-09-12T16:59:33.341Z,48.70
2023-09-12T17:02:36.397Z,49.60
2023-09-12T17:05:38.137Z,50.40
2023-09-12T17:08:39.758Z,51.10
2023-09-12T17:11:41.383Z,51.40
2023-09-12T17:14:43.057Z,52.00
2023-09-12T17:17:46.316Z,52.80
2023-09-12T17:20:48.071Z,53.50
2023-09-12T17:23:49.686Z,54.00
2023-09-12T17:26:51.467Z,54.40
2023-09-12T17:29:53.085Z,54.60
2023-09-12T17:32:54.763Z,56.00
2023-09-12T17:35:56.482Z,58.60
2023-09-12T17:38:58.119Z,58.60
2023-09-12T17:41:59.726Z,61.30
2023-09-12T17:45:01.969Z,65.50
2023-09-12T17:48:03.963Z,70.70
2023-09-12T17:51:05.896Z,74.90
2023-09-12T17:54:07.751Z,77.50
2023-09-12T17:57:09.459Z,79.00
2023-09-12T18:00:12.328Z,80.30
2023-09-12T18:03:14.290Z,80.50
2023-09-12T18:06:16.074Z,78.00
2023-09-12T18:09:17.658Z,72.40
2023-09-12T18:12:20.292Z,71.90
2023-09-12T18:15:22.208Z,73.80
2023-09-12T18:18:23.841Z,75.80
2023-09-12T18:21:25.555Z,80.30
2023-09-12T18:24:29.992Z,83.20
2023-09-12T18:27:32.105Z,81.60
2023-09-12T18:30:33.813Z,80.00
2023-09-12T18:33:35.985Z,81.10
2023-09-12T18:36:38.797Z,79.90
2023-09-12T18:39:42.273Z,80.10
2023-09-12T18:42:44.091Z,80.90
2023-09-12T18:45:46.581Z,82.80
2023-09-12T18:48:48.421Z,83.00
2023-09-12T18:51:51.457Z,84.10
2023-09-12T18:54:53.215Z,84.30
2023-09-12T18:57:54.923Z,83.40
2023-09-12T19:00:59.158Z,85.40
2023-09-12T19:04:21.716Z,85.00
2023-09-12T19:07:23.477Z,86.10
2023-09-12T19:10:25.240Z,85.70
2023-09-12T19:13:26.933Z,85.70
2023-09-12T19:16:29.355Z,86.50
2023-09-12T19:19:31.173Z,86.60
2023-09-12T19:22:32.886Z,86.80
2023-09-12T19:25:41.434Z,87.70
2023-09-12T19:28:43.225Z,89.00
2023-09-12T19:31:45.024Z,86.60
2023-09-12T19:34:46.932Z,86.10
2023-09-12T19:37:49.073Z,85.00
2023-09-12T19:41:00.705Z,83.50
2023-09-12T19:44:02.601Z,84.20
2023-09-12T19:47:05.115Z,83.90
2023-09-12T19:50:07.808Z,84.40
2023-09-12T19:53:10.728Z,84.50
2023-09-12T19:56:12.380Z,84.70
2023-09-12T19:59:16.563Z,84.80
2023-09-12T20:02:18.397Z,85.20
2023-09-12T20:05:22.673Z,85.60
2023-09-12T20:08:27.026Z,86.00
2023-09-12T20:11:28.643Z,85.70
2023-09-12T20:14:30.279Z,85.30
2023-09-12T20:17:31.939Z,85.00
2023-09-12T20:20:33.835Z,85.10
2023-09-12T20:23:36.362Z,84.80
2023-09-12T20:26:38.938Z,84.80
2023-09-12T20:29:40.602Z,84.70
2023-09-12T20:32:56.933Z,84.70
2023-09-12T20:36:00.361Z,85.00
2023-09-12T20:39:21.602Z,84.80
2023-09-12T20:42:23.226Z,84.90
2023-09-12T20:45:25.202Z,84.60
2023-09-12T20:48:26.917Z,84.50
2023-09-12T20:51:28.625Z,84.00
2023-09-12T20:54:30.209Z,82.30
2023-09-12T20:57:31.841Z,82.80
2023-09-12T21:00:34.065Z,82.40
2023-09-12T21:03:35.948Z,82.50
2023-09-12T21:06:37.924Z,82.70
2023-09-12T21:09:39.687Z,83.40
2023-09-12T21:12:41.730Z,83.80
2023-09-12T21:15:43.733Z,84.00
2023-09-12T21:18:45.783Z,83.80
2023-09-12T21:21:47.505Z,83.40
2023-09-12T21:24:49.307Z,84.00
2023-09-12T21:27:51.050Z,84.10
2023-09-12T21:30:53.425Z,83.90
2023-09-12T21:33:55.145Z,83.70
2023-09-12T21:36:56.932Z,83.80
2023-09-12T21:39:58.624Z,83.50
2023-09-12T21:43:01.836Z,83.70
2023-09-12T21:46:03.890Z,84.00
2023-09-12T21:49:06.801Z,84.60
2023-09-12T21:52:08.576Z,85.10
2023-09-12T21:55:10.390Z,85.40
2023-09-12T21:58:12.230Z,85.40
2023-09-12T22:01:13.928Z,85.40
2023-09-12T22:04:16.268Z,85.40
2023-09-12T22:07:17.981Z,85.60
2023-09-12T22:10:20.079Z,86.00
2023-09-12T22:13:21.898Z,86.10
2023-09-12T22:16:23.740Z,86.30
2023-09-12T22:19:28.080Z,86.60
2023-09-12T22:22:33.540Z,87.10
2023-09-12T22:25:35.266Z,86.90
2023-09-12T22:28:37.372Z,86.80
2023-09-12T22:31:39.035Z,87.10
2023-09-12T22:34:41.674Z,87.00
2023-09-12T22:37:43.349Z,86.90
2023-09-12T22:40:45.877Z,87.20
2023-09-12T22:43:47.665Z,87.50
2023-09-12T22:46:50.210Z,87.70
2023-09-12T22:49:52.376Z,87.70
2023-09-12T22:52:54.286Z,87.80
2023-09-12T22:55:56.352Z,88.20
2023-09-12T22:58:58.046Z,88.30
2023-09-12T23:02:00.154Z,88.50
2023-09-12T23:05:01.920Z,88.80
2023-09-12T23:08:04.793Z,88.90
2023-09-12T23:11:06.547Z,89.00
2023-09-12T23:14:08.262Z,89.10
2023-09-12T23:17:09.962Z,89.30
2023-09-12T23:20:14.681Z,89.40
2023-09-12T23:23:16.374Z,89.70
2023-09-12T23:26:18.401Z,89.80
2023-09-12T23:29:20.063Z,89.80
2023-09-12T23:32:21.683Z,89.90
2023-09-12T23:35:23.357Z,89.90
2023-09-12T23:38:25.064Z,90.10
2023-09-12T23:41:26.761Z,90.20
2023-09-12T23:44:28.406Z,90.30
2023-09-12T23:47:31.089Z,90.30
2023-09-12T23:50:32.823Z,90.40
2023-09-12T23:53:34.440Z,90.80
2023-09-12T23:56:37.114Z,90.90
2023-09-12T23:59:38.886Z,90.80
